createdAt,value
2023-01-31T00:00:29.218Z,84.76
2023-01-31T00:03:36.481Z,84.83
2023-01-31T00:06:51.364Z,85.03
2023-01-31T00:09:58.184Z,85.13
2023-01-31T00:13:14.756Z,85.35
2023-01-31T00:16:24.408Z,84.95
2023-01-31T00:19:30.306Z,85.25
2023-01-31T00:22:37.267Z,84.78
2023-01-31T00:25:43.111Z,84.78
2023-01-31T00:28:57.824Z,84.56
2023-01-31T00:32:04.515Z,84.65
2023-01-31T00:35:12.384Z,84.79
2023-01-31T00:38:18.217Z,84.71
2023-01-31T00:41:29.263Z,84.52
2023-01-31T00:44:37.901Z,84.58
2023-01-31T00:47:44.594Z,84.04
2023-01-31T00:50:50.683Z,84.01
2023-01-31T00:53:58.490Z,83.71
2023-01-31T00:57:04.449Z,83.47
2023-01-31T01:00:32.651Z,83.40
2023-01-31T01:03:46.805Z,83.00
2023-01-31T01:06:53.679Z,83.33
2023-01-31T01:10:00.063Z,82.85
2023-01-31T01:13:24.138Z,82.31
2023-01-31T01:16:39.857Z,82.44
2023-01-31T01:19:46.707Z,82.11
2023-01-31T01:22:52.775Z,82.25
2023-01-31T01:25:59.366Z,81.92
2023-01-31T01:29:08.022Z,81.85
2023-01-31T01:32:17.391Z,81.43
2023-01-31T01:35:23.252Z,80.29
2023-01-31T01:38:30.374Z,79.53
2023-01-31T01:41:37.098Z,78.51
2023-01-31T01:44:53.603Z,78.22
2023-01-31T01:48:11.513Z,78.03
2023-01-31T01:51:22.268Z,77.89
2023-01-31T01:54:38.967Z,77.54
2023-01-31T01:57:53.365Z,77.67
2023-01-31T02:00:59.817Z,77.74
2023-01-31T02:04:17.574Z,78.00
2023-01-31T02:07:23.920Z,77.83
2023-01-31T02:10:40.014Z,78.62
2023-01-31T02:13:50.298Z,78.63
2023-01-31T02:16:56.903Z,79.47
2023-01-31T02:20:38.385Z,80.42
2023-01-31T02:24:28.548Z,80.63
2023-01-31T02:28:40.349Z,80.66
2023-01-31T02:32:40.721Z,81.44
2023-01-31T02:36:07.598Z,81.62
2023-01-31T02:39:32.445Z,82.40
2023-01-31T02:42:52.199Z,82.95
2023-01-31T02:46:17.702Z,82.88
2023-01-31T02:49:41.344Z,82.42
2023-01-31T02:53:03.128Z,81.82
2023-01-31T02:56:20.372Z,81.33
2023-01-31T02:59:32.203Z,81.61
2023-01-31T03:02:38.123Z,81.33
2023-01-31T03:05:47.430Z,81.22
2023-01-31T03:09:02.627Z,82.30
2023-01-31T03:12:39.110Z,82.44
2023-01-31T03:16:15.745Z,81.96
2023-01-31T03:19:31.128Z,81.59
2023-01-31T03:22:46.176Z,80.77
2023-01-31T03:25:54.529Z,81.10
2023-01-31T03:29:05.880Z,83.64
2023-01-31T03:32:23.581Z,84.34
2023-01-31T03:35:38.404Z,85.63
2023-01-31T03:39:03.351Z,86.03
2023-01-31T03:42:18.586Z,87.21
2023-01-31T03:45:37.842Z,88.37
2023-01-31T03:48:52.648Z,87.95
2023-01-31T03:52:11.507Z,87.89
2023-01-31T03:55:31.408Z,88.00
2023-01-31T03:58:48.803Z,87.61
2023-01-31T04:02:08.887Z,88.27
2023-01-31T04:05:22.175Z,88.84
2023-01-31T04:08:34.445Z,89.40
2023-01-31T04:11:53.542Z,88.57
2023-01-31T04:15:03.428Z,87.55
2023-01-31T04:18:10.081Z,86.75
2023-01-31T04:21:17.639Z,86.42
2023-01-31T04:24:24.346Z,85.72
2023-01-31T04:27:33.320Z,85.03
2023-01-31T04:30:41.167Z,85.03
2023-01-31T04:33:47.411Z,84.67
2023-01-31T04:36:58.020Z,84.03
2023-01-31T04:40:03.814Z,83.55
2023-01-31T04:43:21.141Z,83.25
2023-01-31T04:46:26.988Z,82.74
2023-01-31T04:49:33.685Z,82.26
2023-01-31T04:52:39.465Z,81.71
2023-01-31T04:55:46.092Z,81.24
2023-01-31T04:58:54.458Z,80.25
2023-01-31T05:02:01.112Z,80.34
2023-01-31T05:05:08.285Z,79.63
2023-01-31T05:08:14.901Z,79.81
2023-01-31T05:11:21.819Z,78.98
2023-01-31T05:14:31.477Z,78.58
2023-01-31T05:17:37.525Z,77.66
2023-01-31T05:20:44.418Z,78.28
2023-01-31T05:23:50.368Z,77.81
2023-01-31T05:26:58.838Z,78.38
2023-01-31T05:30:10.159Z,81.50
2023-01-31T05:33:17.159Z,80.86
2023-01-31T05:36:22.888Z,81.39
2023-01-31T05:39:31.256Z,81.07
2023-01-31T05:42:37.251Z,81.54
2023-01-31T05:45:46.773Z,81.77
2023-01-31T05:48:52.558Z,81.47
2023-01-31T05:52:02.371Z,81.08
2023-01-31T05:55:18.617Z,80.72
2023-01-31T05:58:25.872Z,81.05
2023-01-31T06:01:40.831Z,80.78
2023-01-31T06:04:47.639Z,80.70
2023-01-31T06:07:53.500Z,80.69
2023-01-31T06:11:00.057Z,80.56
2023-01-31T06:14:06.843Z,80.37
2023-01-31T06:17:19.054Z,79.98
2023-01-31T06:20:24.818Z,80.15
2023-01-31T06:23:31.998Z,79.52
2023-01-31T06:26:37.905Z,79.58
2023-01-31T06:29:44.584Z,79.11
2023-01-31T06:32:53.123Z,78.32
2023-01-31T06:36:03.029Z,77.72
2023-01-31T06:39:09.281Z,77.33
2023-01-31T06:42:15.867Z,76.39
2023-01-31T06:45:21.959Z,76.08
2023-01-31T06:48:31.666Z,75.49
2023-01-31T06:51:37.537Z,75.26
2023-01-31T06:54:44.158Z,74.78
2023-01-31T06:57:51.756Z,74.72
2023-01-31T07:00:58.971Z,74.89
2023-01-31T07:04:07.457Z,74.22
2023-01-31T07:07:14.049Z,74.12
2023-01-31T07:10:20.918Z,73.93
2023-01-31T07:13:28.683Z,73.67
2023-01-31T07:16:34.923Z,72.97
2023-01-31T07:19:45.590Z,72.97
2023-01-31T07:22:58.602Z,72.38
2023-01-31T07:26:08.105Z,71.86
2023-01-31T07:29:15.292Z,72.02
2023-01-31T07:32:25.043Z,71.56
2023-01-31T07:35:34.108Z,71.20
2023-01-31T07:38:40.715Z,70.76
2023-01-31T07:41:46.732Z,70.83
2023-01-31T07:44:53.694Z,70.45
2023-01-31T07:48:01.915Z,70.52
2023-01-31T07:51:11.929Z,70.98
2023-01-31T07:54:18.843Z,70.29
2023-01-31T07:57:29.750Z,70.74
2023-01-31T08:00:48.401Z,70.29
2023-01-31T08:03:55.736Z,70.36
2023-01-31T08:07:06.375Z,70.44
2023-01-31T08:10:17.497Z,70.50
2023-01-31T08:13:23.277Z,70.41
2023-01-31T08:16:32.149Z,70.58
2023-01-31T08:19:48.270Z,70.72
2023-01-31T08:23:00.082Z,70.42
2023-01-31T08:26:09.997Z,70.71
2023-01-31T08:29:16.718Z,70.27
2023-01-31T08:32:22.555Z,70.32
2023-01-31T08:35:30.408Z,69.99
2023-01-31T08:38:42.997Z,69.28
2023-01-31T08:41:49.673Z,69.51
2023-01-31T08:44:56.454Z,68.68
2023-01-31T08:48:04.076Z,68.48
2023-01-31T08:51:13.086Z,68.10
2023-01-31T08:54:22.257Z,67.09
2023-01-31T08:57:28.203Z,67.05
2023-01-31T09:00:35.886Z,67.36
2023-01-31T09:03:44.732Z,66.89
2023-01-31T09:06:52.083Z,66.35
2023-01-31T09:10:00.439Z,65.63
2023-01-31T09:13:10.647Z,65.13
2023-01-31T09:16:18.157Z,65.49
2023-01-31T09:19:25.576Z,64.89
2023-01-31T09:22:36.952Z,63.89
2023-01-31T09:25:47.914Z,64.31
2023-01-31T09:28:54.094Z,63.56
2023-01-31T09:32:00.973Z,63.14
2023-01-31T09:35:14.119Z,63.39
2023-01-31T09:38:20.936Z,62.85
2023-01-31T09:41:39.137Z,61.99
2023-01-31T09:44:59.716Z,61.97
2023-01-31T09:48:10.108Z,62.93
2023-01-31T09:51:20.013Z,64.48
2023-01-31T09:54:40.674Z,64.05
2023-01-31T09:58:08.107Z,64.78
2023-01-31T10:01:26.577Z,64.49
2023-01-31T10:05:07.795Z,63.83
2023-01-31T10:08:36.566Z,63.37
2023-01-31T10:11:52.202Z,63.96
2023-01-31T10:15:07.183Z,63.83
2023-01-31T10:18:26.122Z,64.25
2023-01-31T10:21:42.003Z,64.22
2023-01-31T10:25:00.012Z,64.75
2023-01-31T10:28:37.210Z,63.75
2023-01-31T10:31:54.574Z,62.29
2023-01-31T10:35:13.055Z,62.47
2023-01-31T10:38:31.407Z,61.90
2023-01-31T10:42:08.256Z,62.11
2023-01-31T10:45:22.494Z,62.47
2023-01-31T10:48:33.963Z,62.43
2023-01-31T10:52:06.907Z,60.70
2023-01-31T10:55:55.354Z,61.19
2023-01-31T10:59:08.034Z,60.88
2023-01-31T11:02:25.529Z,59.96
2023-01-31T11:05:52.285Z,59.29
2023-01-31T11:09:02.690Z,59.77
2023-01-31T11:12:11.697Z,60.45
2023-01-31T11:15:26.267Z,60.11
2023-01-31T11:18:47.911Z,60.32
2023-01-31T11:22:04.916Z,60.54
2023-01-31T11:25:25.472Z,60.75
2023-01-31T11:28:40.282Z,60.64
2023-01-31T11:31:50.887Z,60.75
2023-01-31T11:35:06.607Z,61.06
2023-01-31T11:38:27.969Z,62.09
2023-01-31T11:41:38.216Z,62.16
2023-01-31T11:44:59.930Z,61.92
2023-01-31T11:48:19.643Z,62.39
2023-01-31T11:51:34.232Z,63.00
2023-01-31T11:54:52.381Z,63.38
2023-01-31T11:58:04.845Z,63.27
2023-01-31T12:01:20.982Z,63.37
2023-01-31T12:04:38.116Z,63.00
2023-01-31T12:07:58.805Z,61.92
2023-01-31T12:11:32.153Z,61.05
2023-01-31T12:14:45.028Z,60.51
2023-01-31T12:17:53.997Z,60.93
2023-01-31T12:21:17.966Z,60.55
2023-01-31T12:24:43.797Z,60.96
2023-01-31T12:28:19.558Z,60.79
2023-01-31T12:31:52.795Z,61.62
2023-01-31T12:35:35.593Z,60.67
2023-01-31T12:39:02.153Z,60.72
2023-01-31T12:42:36.035Z,61.38
2023-01-31T12:46:09.918Z,61.32
2023-01-31T12:49:52.245Z,62.45
2023-01-31T12:53:41.296Z,62.64
2023-01-31T12:57:07.828Z,63.79
2023-01-31T13:00:40.364Z,64.56
2023-01-31T13:04:19.823Z,65.35
2023-01-31T13:07:41.762Z,64.84
2023-01-31T13:10:56.099Z,65.48
2023-01-31T13:14:08.934Z,65.23
2023-01-31T13:17:21.335Z,65.88
2023-01-31T13:20:43.011Z,66.68
2023-01-31T13:23:57.027Z,67.79
2023-01-31T13:27:14.655Z,68.24
2023-01-31T13:30:34.209Z,68.11
2023-01-31T13:33:54.014Z,67.89
2023-01-31T13:37:12.494Z,67.78
2023-01-31T13:40:25.608Z,67.21
2023-01-31T13:43:31.440Z,67.33
2023-01-31T13:46:53.941Z,67.22
2023-01-31T13:50:07.543Z,67.36
2023-01-31T13:53:29.531Z,68.25
2023-01-31T13:56:41.521Z,68.47
2023-01-31T13:59:59.441Z,68.95
2023-01-31T14:03:08.863Z,70.66
2023-01-31T14:06:15.618Z,71.48
2023-01-31T14:09:31.097Z,71.45
2023-01-31T14:12:41.224Z,72.36
2023-01-31T14:15:53.680Z,73.31
2023-01-31T14:19:00.570Z,74.21
2023-01-31T14:22:19.404Z,74.98
2023-01-31T14:25:45.732Z,74.97
2023-01-31T14:28:51.709Z,74.72
2023-01-31T14:32:02.255Z,74.66
2023-01-31T14:35:49.308Z,74.38
2023-01-31T14:39:54.558Z,73.83
2023-01-31T14:43:39.048Z,73.98
2023-01-31T14:47:17.201Z,73.98
2023-01-31T14:50:50.215Z,74.33
2023-01-31T14:54:38.957Z,74.60
2023-01-31T14:57:50.877Z,75.76
2023-01-31T15:01:04.348Z,77.03
2023-01-31T15:04:10.352Z,77.31
2023-01-31T15:07:20.539Z,77.05
2023-01-31T15:10:58.475Z,77.90
2023-01-31T15:14:34.366Z,78.55
2023-01-31T15:17:58.084Z,78.74
2023-01-31T15:21:18.387Z,78.72
2023-01-31T15:24:35.660Z,79.14
2023-01-31T15:27:47.718Z,79.33
2023-01-31T15:30:57.783Z,79.64
2023-01-31T15:34:23.041Z,80.16
2023-01-31T15:37:37.268Z,80.38
2023-01-31T15:40:44.035Z,80.04
2023-01-31T15:43:51.912Z,80.10
2023-01-31T15:47:03.789Z,80.37
2023-01-31T15:50:23.289Z,80.91
2023-01-31T15:53:33.242Z,81.72
2023-01-31T15:56:46.770Z,82.08
2023-01-31T15:59:53.816Z,82.57
2023-01-31T16:03:07.023Z,82.64
2023-01-31T16:06:29.003Z,83.07
2023-01-31T16:09:39.191Z,83.19
2023-01-31T16:12:51.986Z,83.04
2023-01-31T16:15:58.710Z,83.50
2023-01-31T16:19:10.565Z,83.16
2023-01-31T16:22:32.408Z,83.16
2023-01-31T16:25:40.224Z,83.24
2023-01-31T16:28:53.915Z,82.95
2023-01-31T16:32:00.955Z,82.74
2023-01-31T16:35:11.628Z,83.07
2023-01-31T16:38:29.975Z,83.44
2023-01-31T16:41:50.794Z,83.72
2023-01-31T16:44:57.410Z,83.95
2023-01-31T16:48:34.389Z,84.64
2023-01-31T16:51:49.552Z,84.87
2023-01-31T16:55:08.438Z,84.48
2023-01-31T16:58:53.114Z,84.56
2023-01-31T17:02:07.192Z,84.51
2023-01-31T17:05:26.318Z,84.49
2023-01-31T17:08:32.441Z,85.00
2023-01-31T17:11:43.959Z,85.17
2023-01-31T17:14:50.224Z,85.30
2023-01-31T17:17:58.894Z,85.75
2023-01-31T17:21:04.682Z,86.00
2023-01-31T17:24:17.981Z,86.16
2023-01-31T17:27:26.499Z,86.44
2023-01-31T17:30:33.812Z,86.64
2023-01-31T17:33:39.620Z,86.57
2023-01-31T17:36:49.373Z,86.87
2023-01-31T17:39:55.137Z,87.06
2023-01-31T17:43:07.353Z,86.71
2023-01-31T17:46:19.317Z,86.84
2023-01-31T17:49:26.412Z,86.89
2023-01-31T17:52:32.271Z,87.10
2023-01-31T17:55:45.754Z,87.04
2023-01-31T17:58:54.585Z,87.08
2023-01-31T18:02:03.126Z,86.62
2023-01-31T18:05:09.917Z,86.93
2023-01-31T18:08:17.797Z,87.09
2023-01-31T18:11:26.017Z,86.97
2023-01-31T18:14:39.007Z,87.05
2023-01-31T18:17:45.670Z,86.93
2023-01-31T18:20:52.317Z,87.19
2023-01-31T18:24:08.419Z,86.77
2023-01-31T18:27:33.565Z,87.00
2023-01-31T18:30:45.469Z,87.00
2023-01-31T18:33:52.270Z,87.02
2023-01-31T18:36:58.239Z,87.25
2023-01-31T18:40:19.490Z,87.09
2023-01-31T18:43:26.734Z,87.11
2023-01-31T18:46:35.958Z,86.69
2023-01-31T18:49:45.923Z,87.01
2023-01-31T18:52:52.534Z,87.26
2023-01-31T18:56:05.694Z,87.24
2023-01-31T18:59:12.530Z,87.03
2023-01-31T19:02:21.112Z,87.30
2023-01-31T19:05:28.612Z,87.67
2023-01-31T19:08:35.396Z,87.44
2023-01-31T19:11:43.700Z,87.39
2023-01-31T19:14:49.676Z,87.11
2023-01-31T19:17:58.888Z,87.27
2023-01-31T19:21:05.034Z,87.64
2023-01-31T19:24:17.172Z,87.54
2023-01-31T19:27:23.421Z,87.76
2023-01-31T19:30:30.113Z,87.67
2023-01-31T19:33:39.401Z,87.96
2023-01-31T19:36:50.370Z,87.98
2023-01-31T19:39:56.240Z,88.29
2023-01-31T19:43:05.018Z,88.64
2023-01-31T19:46:13.275Z,88.37
2023-01-31T19:49:23.378Z,88.18
2023-01-31T19:52:36.538Z,88.16
2023-01-31T19:55:43.214Z,88.19
2023-01-31T19:59:00.749Z,88.09
2023-01-31T20:02:07.378Z,88.26
2023-01-31T20:05:19.177Z,87.87
2023-01-31T20:08:29.152Z,88.17
2023-01-31T20:11:36.905Z,88.11
2023-01-31T20:14:43.639Z,88.16
2023-01-31T20:17:49.430Z,88.39
2023-01-31T20:20:59.110Z,88.66
2023-01-31T20:24:05.215Z,88.85
2023-01-31T20:27:11.823Z,88.99
2023-01-31T20:30:20.175Z,89.05
2023-01-31T20:33:26.930Z,88.85
2023-01-31T20:36:35.366Z,88.65
2023-01-31T20:39:44.477Z,88.72
2023-01-31T20:42:50.570Z,88.24
2023-01-31T20:46:06.568Z,88.82
2023-01-31T20:49:12.571Z,88.70
2023-01-31T20:52:24.462Z,88.37
2023-01-31T20:55:34.317Z,88.23
2023-01-31T20:58:44.084Z,87.82
2023-01-31T21:01:50.066Z,87.97
2023-01-31T21:05:12.097Z,88.21
2023-01-31T21:08:20.760Z,88.00
2023-01-31T21:11:27.854Z,87.92
2023-01-31T21:14:33.634Z,88.22
2023-01-31T21:17:40.833Z,88.13
2023-01-31T21:20:49.349Z,88.28
2023-01-31T21:24:08.990Z,88.28
2023-01-31T21:27:17.364Z,87.96
2023-01-31T21:30:36.352Z,87.88
2023-01-31T21:33:42.304Z,87.62
2023-01-31T21:36:49.060Z,87.53
2023-01-31T21:39:57.847Z,87.44
2023-01-31T21:43:04.397Z,87.41
2023-01-31T21:46:12.501Z,87.39
2023-01-31T21:49:19.529Z,87.25
2023-01-31T21:52:25.361Z,86.84
2023-01-31T21:55:34.500Z,86.97
2023-01-31T21:58:42.380Z,87.04
2023-01-31T22:01:51.790Z,87.39
2023-01-31T22:04:57.744Z,87.32
2023-01-31T22:08:04.374Z,87.74
2023-01-31T22:11:19.170Z,87.69
2023-01-31T22:14:26.246Z,87.57
2023-01-31T22:17:31.926Z,87.56
2023-01-31T22:20:40.672Z,87.85
2023-01-31T22:23:51.089Z,88.05
2023-01-31T22:27:00.357Z,88.13
2023-01-31T22:30:16.069Z,87.80
2023-01-31T22:33:22.863Z,87.83
2023-01-31T22:36:28.717Z,87.92
2023-01-31T22:39:35.269Z,87.57
2023-01-31T22:42:43.653Z,87.40
2023-01-31T22:45:53.758Z,87.21
2023-01-31T22:49:00.368Z,87.14
2023-01-31T22:52:07.388Z,86.93
2023-01-31T22:55:16.431Z,86.86
2023-01-31T22:58:25.904Z,86.83
2023-01-31T23:01:35.272Z,86.58
2023-01-31T23:04:42.165Z,86.77
2023-01-31T23:07:47.933Z,86.38
2023-01-31T23:10:54.539Z,86.23
2023-01-31T23:14:03.307Z,85.75
2023-01-31T23:17:28.376Z,85.33
2023-01-31T23:20:38.809Z,85.12
2023-01-31T23:23:46.813Z,85.02
2023-01-31T23:26:54.567Z,85.13
2023-01-31T23:30:03.795Z,85.58
2023-01-31T23:33:11.520Z,86.23
2023-01-31T23:36:18.145Z,86.61
2023-01-31T23:39:23.830Z,87.23
2023-01-31T23:42:30.964Z,87.50
2023-01-31T23:45:40.753Z,87.45
2023-01-31T23:48:47.413Z,87.29
2023-01-31T23:51:55.671Z,87.19
2023-01-31T23:55:08.475Z,87.14
2023-01-31T23:58:28.711Z,87.13
